Terminal Aerodrome Forecast
Issued by NWS Austin/San Antonio, TX

Home | Current Version | Previous Version | Text Only | Print | Product List | Glossary On
Versions: 1 2 3 4 5 6 7 8 9 10 11 12 13 14 15 16 17 18 19 20 21 22 23 24
000
FTUS44 KEWX 260709 AAA
TAFAUS
TAF AMD
KAUS 260709Z 2607/2712 16006KT P6SM FEW025
     FM260900 17006KT P6SM BKN015
     FM261500 19012KT P6SM SCT035 SCT250
     FM262100 15012KT P6SM SCT060 SCT250
     FM270800 17006KT P6SM BKN015=

USA.gov is the U.S. government's official web portal to all federal, state and local government web resources and services.